PWSweather.com
Personal Weather Stations
Station Observations
BERGSLAGEN
Bergslagen, NoraSE

BergslagenNoraSE

Lat: 59.532278, Lon: 15.016132

Elevation: 492

Station Type: Davis Vantage Pro2 Plus Wireless

http://www.weather.tallasen.se

Latest ConditionsUpdated 11:45:01 PM GMT+01:01 Friday, Dec 14, 2018
Currently Today's Max Today's Min Today's Average
Temperature 23.7°F-4.6°C 28.6°F-1.9°C 23.7°F-4.6°C 26.2°F-3.2°C
Dew Point 21.5°F-5.8°C 24.2°F-4.3°C 21.5°F-5.8°C 23.0°F-5.0°C
Winds Calm Calm 1.0 mph -1.6 kmh - - 0.0 mph 0.0 kmh
Wind Gusts -- 5.0 mph8.0 kmh - -
Humidity 91% 91% 83% 87%
Pressure 30.55 in1034.5 mb 30.57 in1035.2 mb 30.50 in1032.8 mb -
Hour Temp Dew Point Humidity Winds Wind Gusts Pressure Precip Precip Rate Daily Precip Total
11:45 PM 23.7°F-4.6°C 21.5°F-5.8°C 91% Calm Calm -- 30.55 in1034.5 mb 0.00 in0.0 mm 0.00 in0.0 mm 0.00 in0.0 mm
11:30 PM 23.7°F-4.6°C 21.5°F-5.8°C 91% Calm Calm -- 30.56 in1034.9 mb 0.00 in0.0 mm 0.00 in0.0 mm 0.00 in0.0 mm
11:15 PM 23.7°F-4.6°C 21.5°F-5.8°C 91% Calm Calm -- 30.56 in1034.9 mb 0.00 in0.0 mm 0.00 in0.0 mm 0.00 in0.0 mm
11:00 PM 23.7°F-4.6°C 21.5°F-5.8°C 91% Calm Calm -- 30.56 in1034.9 mb 0.00 in0.0 mm 0.00 in0.0 mm 0.00 in0.0 mm
10:45 PM 24.1°F-4.4°C 21.8°F-5.7°C 91% Calm Calm -- 30.56 in1034.9 mb 0.00 in0.0 mm 0.00 in0.0 mm 0.00 in0.0 mm
10:30 PM 24.1°F-4.4°C 21.8°F-5.7°C 91% Calm Calm -- 30.57 in1035.2 mb 0.00 in0.0 mm 0.00 in0.0 mm 0.00 in0.0 mm
10:15 PM 24.1°F-4.4°C 21.8°F-5.7°C 91% Calm Calm -- 30.57 in1035.2 mb 0.00 in0.0 mm 0.00 in0.0 mm 0.00 in0.0 mm
10:00 PM 24.3°F-4.3°C 22.0°F-5.6°C 91% Calm Calm -- 30.57 in1035.2 mb 0.00 in0.0 mm 0.00 in0.0 mm 0.00 in0.0 mm
09:45 PM 24.4°F-4.2°C 22.2°F-5.4°C 91% Calm Calm -- 30.57 in1035.2 mb 0.00 in0.0 mm 0.00 in0.0 mm 0.00 in0.0 mm
09:30 PM 24.4°F-4.2°C 22.2°F-5.4°C 91% Calm Calm -- 30.57 in1035.2 mb 0.00 in0.0 mm 0.00 in0.0 mm 0.00 in0.0 mm
09:15 PM 24.6°F-4.1°C 22.4°F-5.3°C 91% Calm Calm -- 30.57 in1035.2 mb 0.00 in0.0 mm 0.00 in0.0 mm 0.00 in0.0 mm
09:00 PM 24.6°F-4.1°C 22.4°F-5.3°C 91% Calm Calm -- 30.57 in1035.2 mb 0.00 in0.0 mm 0.00 in0.0 mm 0.00 in0.0 mm
08:45 PM 24.6°F-4.1°C 22.4°F-5.3°C 91% Calm Calm -- 30.56 in1034.9 mb 0.00 in0.0 mm 0.00 in0.0 mm 0.00 in0.0 mm
08:30 PM 25.0°F-3.9°C 22.7°F-5.2°C 91% Calm Calm -- 30.56 in1034.9 mb 0.00 in0.0 mm 0.00 in0.0 mm 0.00 in0.0 mm
08:15 PM 24.6°F-4.1°C 22.4°F-5.3°C 91% Calm Calm -- 30.56 in1034.9 mb 0.00 in0.0 mm 0.00 in0.0 mm 0.00 in0.0 mm
08:00 PM 24.6°F-4.1°C 22.4°F-5.3°C 91% Calm Calm -- 30.56 in1034.9 mb 0.00 in0.0 mm 0.00 in0.0 mm 0.00 in0.0 mm
07:45 PM 24.6°F-4.1°C 22.4°F-5.3°C 91% Calm Calm -- 30.56 in1034.9 mb 0.00 in0.0 mm 0.00 in0.0 mm 0.00 in0.0 mm
07:30 PM 24.6°F-4.1°C 22.4°F-5.3°C 91% Calm Calm -- 30.56 in1034.9 mb 0.00 in0.0 mm 0.00 in0.0 mm 0.00 in0.0 mm
07:15 PM 25.0°F-3.9°C 22.7°F-5.2°C 91% Calm Calm -- 30.56 in1034.9 mb 0.00 in0.0 mm 0.00 in0.0 mm 0.00 in0.0 mm
07:00 PM 25.0°F-3.9°C 22.5°F-5.3°C 90% Calm Calm -- 30.55 in1034.5 mb 0.00 in0.0 mm 0.00 in0.0 mm 0.00 in0.0 mm
06:45 PM 25.2°F-3.8°C 22.6°F-5.2°C 90% Calm Calm -- 30.55 in1034.5 mb 0.00 in0.0 mm 0.00 in0.0 mm 0.00 in0.0 mm
06:30 PM 25.2°F-3.8°C 22.6°F-5.2°C 90% Calm Calm -- 30.55 in1034.5 mb 0.00 in0.0 mm 0.00 in0.0 mm 0.00 in0.0 mm
06:15 PM 25.2°F-3.8°C 22.6°F-5.2°C 90% Calm Calm -- 30.55 in1034.5 mb 0.00 in0.0 mm 0.00 in0.0 mm 0.00 in0.0 mm
06:00 PM 25.3°F-3.7°C 22.6°F-5.2°C 89% Calm Calm -- 30.55 in1034.5 mb 0.00 in0.0 mm 0.00 in0.0 mm 0.00 in0.0 mm
05:45 PM 25.3°F-3.7°C 22.6°F-5.2°C 89% Calm Calm 1.0 mph1.6 kmh 30.55 in1034.5 mb 0.00 in0.0 mm 0.00 in0.0 mm 0.00 in0.0 mm
05:30 PM 25.5°F-3.6°C 22.7°F-5.2°C 89% Calm Calm 3.0 mph4.8 kmh 30.55 in1034.5 mb 0.00 in0.0 mm 0.00 in0.0 mm 0.00 in0.0 mm
05:15 PM 25.5°F-3.6°C 22.7°F-5.2°C 89% Calm Calm 2.0 mph3.2 kmh 30.55 in1034.5 mb 0.00 in0.0 mm 0.00 in0.0 mm 0.00 in0.0 mm
05:00 PM 25.5°F-3.6°C 22.7°F-5.2°C 89% Calm Calm 3.0 mph4.8 kmh 30.55 in1034.5 mb 0.00 in0.0 mm 0.00 in0.0 mm 0.00 in0.0 mm
04:45 PM 25.5°F-3.6°C 22.7°F-5.2°C 89% Calm Calm 1.0 mph1.6 kmh 30.55 in1034.5 mb 0.00 in0.0 mm 0.00 in0.0 mm 0.00 in0.0 mm
04:30 PM 25.7°F-3.5°C 22.9°F-5.1°C 89% Calm Calm 2.0 mph3.2 kmh 30.55 in1034.5 mb 0.00 in0.0 mm 0.00 in0.0 mm 0.00 in0.0 mm
04:15 PM 25.5°F-3.6°C 22.7°F-5.2°C 89% Calm Calm 1.0 mph1.6 kmh 30.55 in1034.5 mb 0.00 in0.0 mm 0.00 in0.0 mm 0.00 in0.0 mm
04:00 PM 25.7°F-3.5°C 22.9°F-5.1°C 89% Calm Calm -- 30.55 in1034.5 mb 0.00 in0.0 mm 0.00 in0.0 mm 0.00 in0.0 mm
03:45 PM 25.5°F-3.6°C 22.7°F-5.2°C 89% Calm Calm 1.0 mph1.6 kmh 30.54 in1034.2 mb 0.00 in0.0 mm 0.00 in0.0 mm 0.00 in0.0 mm
03:30 PM 25.5°F-3.6°C 22.7°F-5.2°C 89% Calm Calm 3.0 mph4.8 kmh 30.54 in1034.2 mb 0.00 in0.0 mm 0.00 in0.0 mm 0.00 in0.0 mm
03:15 PM 25.7°F-3.5°C 22.6°F-5.2°C 88% Calm Calm 2.0 mph3.2 kmh 30.54 in1034.2 mb 0.00 in0.0 mm 0.00 in0.0 mm 0.00 in0.0 mm
03:00 PM 25.7°F-3.5°C 22.6°F-5.2°C 88% Calm Calm 1.0 mph1.6 kmh 30.54 in1034.2 mb 0.00 in0.0 mm 0.00 in0.0 mm 0.00 in0.0 mm
02:45 PM 25.5°F-3.6°C 22.5°F-5.3°C 88% Calm Calm 1.0 mph1.6 kmh 30.54 in1034.2 mb 0.00 in0.0 mm 0.00 in0.0 mm 0.00 in0.0 mm
02:30 PM 25.5°F-3.6°C 22.5°F-5.3°C 88% Calm Calm 2.0 mph3.2 kmh 30.54 in1034.2 mb 0.00 in0.0 mm 0.00 in0.0 mm 0.00 in0.0 mm
02:15 PM 25.5°F-3.6°C 22.5°F-5.3°C 88% Calm Calm 3.0 mph4.8 kmh 30.54 in1034.2 mb 0.00 in0.0 mm 0.00 in0.0 mm 0.00 in0.0 mm
02:00 PM 25.9°F-3.4°C 22.5°F-5.3°C 87% Calm Calm 3.0 mph4.8 kmh 30.54 in1034.2 mb 0.00 in0.0 mm 0.00 in0.0 mm 0.00 in0.0 mm
01:45 PM 25.9°F-3.4°C 22.5°F-5.3°C 87% Calm Calm 1.0 mph1.6 kmh 30.54 in1034.2 mb 0.00 in0.0 mm 0.00 in0.0 mm 0.00 in0.0 mm
01:30 PM 26.1°F-3.3°C 23.0°F-5.0°C 88% Calm Calm 2.0 mph3.2 kmh 30.54 in1034.2 mb 0.00 in0.0 mm 0.00 in0.0 mm 0.00 in0.0 mm
01:15 PM 26.1°F-3.3°C 23.3°F-4.8°C 89% 1.0 mph NW1.6 kmh NW 4.0 mph6.4 kmh 30.54 in1034.2 mb 0.00 in0.0 mm 0.00 in0.0 mm 0.00 in0.0 mm
01:00 PM 26.2°F-3.2°C 23.4°F-4.8°C 89% Calm Calm 3.0 mph4.8 kmh 30.54 in1034.2 mb 0.00 in0.0 mm 0.00 in0.0 mm 0.00 in0.0 mm
12:45 PM 26.2°F-3.2°C 23.4°F-4.8°C 89% Calm Calm 3.0 mph4.8 kmh 30.54 in1034.2 mb 0.00 in0.0 mm 0.00 in0.0 mm 0.00 in0.0 mm
12:30 PM 26.2°F-3.2°C 23.4°F-4.8°C 89% 1.0 mph NNW1.6 kmh NNW 5.0 mph8.0 kmh 30.54 in1034.2 mb 0.00 in0.0 mm 0.00 in0.0 mm 0.00 in0.0 mm
12:15 PM 26.2°F-3.2°C 23.2°F-4.9°C 88% Calm Calm -- 30.54 in1034.2 mb 0.00 in0.0 mm 0.00 in0.0 mm 0.00 in0.0 mm
12:00 PM 26.2°F-3.2°C 23.2°F-4.9°C 88% Calm Calm 3.0 mph4.8 kmh 30.54 in1034.2 mb 0.00 in0.0 mm 0.00 in0.0 mm 0.00 in0.0 mm
11:45 AM 26.2°F-3.2°C 23.2°F-4.9°C 88% 1.0 mph W1.6 kmh W 3.0 mph4.8 kmh 30.54 in1034.2 mb 0.00 in0.0 mm 0.00 in0.0 mm 0.00 in0.0 mm
11:30 AM 26.2°F-3.2°C 23.2°F-4.9°C 88% Calm Calm 2.0 mph3.2 kmh 30.54 in1034.2 mb 0.00 in0.0 mm 0.00 in0.0 mm 0.00 in0.0 mm
11:15 AM 26.4°F-3.1°C 23.1°F-4.9°C 87% Calm Calm 3.0 mph4.8 kmh 30.54 in1034.2 mb 0.00 in0.0 mm 0.00 in0.0 mm 0.00 in0.0 mm
11:00 AM 26.2°F-3.2°C 22.9°F-5.1°C 87% Calm Calm 3.0 mph4.8 kmh 30.54 in1034.2 mb 0.00 in0.0 mm 0.00 in0.0 mm 0.00 in0.0 mm
10:45 AM 26.4°F-3.1°C 23.1°F-4.9°C 87% Calm Calm 2.0 mph3.2 kmh 30.54 in1034.2 mb 0.00 in0.0 mm 0.00 in0.0 mm 0.00 in0.0 mm
10:30 AM 26.4°F-3.1°C 23.1°F-4.9°C 87% Calm Calm 2.0 mph3.2 kmh 30.54 in1034.2 mb 0.00 in0.0 mm 0.00 in0.0 mm 0.00 in0.0 mm
10:15 AM 26.4°F-3.1°C 23.1°F-4.9°C 87% Calm Calm 2.0 mph3.2 kmh 30.54 in1034.2 mb 0.00 in0.0 mm 0.00 in0.0 mm 0.00 in0.0 mm
10:00 AM 26.4°F-3.1°C 23.1°F-4.9°C 87% Calm Calm 1.0 mph1.6 kmh 30.54 in1034.2 mb 0.00 in0.0 mm 0.00 in0.0 mm 0.00 in0.0 mm
09:45 AM 26.4°F-3.1°C 23.1°F-4.9°C 87% Calm Calm 2.0 mph3.2 kmh 30.54 in1034.2 mb 0.00 in0.0 mm 0.00 in0.0 mm 0.00 in0.0 mm
09:30 AM 26.2°F-3.2°C 22.9°F-5.1°C 87% Calm Calm 2.0 mph3.2 kmh 30.54 in1034.2 mb 0.00 in0.0 mm 0.00 in0.0 mm 0.00 in0.0 mm
09:15 AM 26.4°F-3.1°C 23.1°F-4.9°C 87% Calm Calm 2.0 mph3.2 kmh 30.53 in1033.9 mb 0.00 in0.0 mm 0.00 in0.0 mm 0.00 in0.0 mm
09:00 AM 26.4°F-3.1°C 23.1°F-4.9°C 87% Calm Calm 2.0 mph3.2 kmh 30.53 in1033.9 mb 0.00 in0.0 mm 0.00 in0.0 mm 0.00 in0.0 mm
08:45 AM 26.6°F-3.0°C 23.0°F-5.0°C 86% Calm Calm 2.0 mph3.2 kmh 30.53 in1033.9 mb 0.00 in0.0 mm 0.00 in0.0 mm 0.00 in0.0 mm
08:30 AM 26.8°F-2.9°C 23.2°F-4.9°C 86% Calm Calm 2.0 mph3.2 kmh 30.53 in1033.9 mb 0.00 in0.0 mm 0.00 in0.0 mm 0.00 in0.0 mm
08:15 AM 26.8°F-2.9°C 23.2°F-4.9°C 86% Calm Calm 2.0 mph3.2 kmh 30.52 in1033.5 mb 0.00 in0.0 mm 0.00 in0.0 mm 0.00 in0.0 mm
08:00 AM 26.6°F-3.0°C 23.0°F-5.0°C 86% Calm Calm 2.0 mph3.2 kmh 30.52 in1033.5 mb 0.00 in0.0 mm 0.00 in0.0 mm 0.00 in0.0 mm
07:45 AM 26.8°F-2.9°C 23.2°F-4.9°C 86% Calm Calm 2.0 mph3.2 kmh 30.52 in1033.5 mb 0.00 in0.0 mm 0.00 in0.0 mm 0.00 in0.0 mm
07:30 AM 27.0°F-2.8°C 23.3°F-4.8°C 86% Calm Calm 2.0 mph3.2 kmh 30.52 in1033.5 mb 0.00 in0.0 mm 0.00 in0.0 mm 0.00 in0.0 mm
07:15 AM 27.1°F-2.7°C 23.5°F-4.7°C 86% Calm Calm 2.0 mph3.2 kmh 30.52 in1033.5 mb 0.00 in0.0 mm 0.00 in0.0 mm 0.00 in0.0 mm
07:00 AM 27.1°F-2.7°C 23.5°F-4.7°C 86% Calm Calm 2.0 mph3.2 kmh 30.52 in1033.5 mb 0.00 in0.0 mm 0.00 in0.0 mm 0.00 in0.0 mm
06:45 AM 27.1°F-2.7°C 23.5°F-4.7°C 86% Calm Calm 2.0 mph3.2 kmh 30.52 in1033.5 mb 0.00 in0.0 mm 0.00 in0.0 mm 0.00 in0.0 mm
06:30 AM 27.1°F-2.7°C 23.5°F-4.7°C 86% Calm Calm 2.0 mph3.2 kmh 30.52 in1033.5 mb 0.00 in0.0 mm 0.00 in0.0 mm 0.00 in0.0 mm
06:15 AM 27.1°F-2.7°C 23.2°F-4.9°C 85% Calm Calm 2.0 mph3.2 kmh 30.51 in1033.2 mb 0.00 in0.0 mm 0.00 in0.0 mm 0.00 in0.0 mm
06:00 AM 27.1°F-2.7°C 23.2°F-4.9°C 85% Calm Calm 2.0 mph3.2 kmh 30.51 in1033.2 mb 0.00 in0.0 mm 0.00 in0.0 mm 0.00 in0.0 mm
05:45 AM 27.1°F-2.7°C 23.2°F-4.9°C 85% Calm Calm 2.0 mph3.2 kmh 30.51 in1033.2 mb 0.00 in0.0 mm 0.00 in0.0 mm 0.00 in0.0 mm
05:30 AM 27.1°F-2.7°C 23.2°F-4.9°C 85% Calm Calm 2.0 mph3.2 kmh 30.51 in1033.2 mb 0.00 in0.0 mm 0.00 in0.0 mm 0.00 in0.0 mm
05:15 AM 27.1°F-2.7°C 23.2°F-4.9°C 85% Calm Calm 2.0 mph3.2 kmh 30.51 in1033.2 mb 0.00 in0.0 mm 0.00 in0.0 mm 0.00 in0.0 mm
05:00 AM 27.5°F-2.5°C 23.6°F-4.7°C 85% Calm Calm 2.0 mph3.2 kmh 30.51 in1033.2 mb 0.00 in0.0 mm 0.00 in0.0 mm 0.00 in0.0 mm
04:45 AM 27.7°F-2.4°C 23.8°F-4.6°C 85% Calm Calm 2.0 mph3.2 kmh 30.50 in1032.8 mb 0.00 in0.0 mm 0.00 in0.0 mm 0.00 in0.0 mm
04:30 AM 27.9°F-2.3°C 23.9°F-4.5°C 85% Calm Calm 2.0 mph3.2 kmh 30.51 in1033.2 mb 0.00 in0.0 mm 0.00 in0.0 mm 0.00 in0.0 mm
04:15 AM 28.0°F-2.2°C 24.1°F-4.4°C 85% Calm Calm 2.0 mph3.2 kmh 30.51 in1033.2 mb 0.00 in0.0 mm 0.00 in0.0 mm 0.00 in0.0 mm
04:00 AM 28.0°F-2.2°C 23.8°F-4.6°C 84% Calm Calm 2.0 mph3.2 kmh 30.51 in1033.2 mb 0.00 in0.0 mm 0.00 in0.0 mm 0.00 in0.0 mm
03:45 AM 28.0°F-2.2°C 23.8°F-4.6°C 84% Calm Calm 2.0 mph3.2 kmh 30.52 in1033.5 mb 0.00 in0.0 mm 0.00 in0.0 mm 0.00 in0.0 mm
03:30 AM 28.0°F-2.2°C 23.8°F-4.6°C 84% Calm Calm 2.0 mph3.2 kmh 30.52 in1033.5 mb 0.00 in0.0 mm 0.00 in0.0 mm 0.00 in0.0 mm
03:15 AM 28.0°F-2.2°C 23.8°F-4.6°C 84% Calm Calm 2.0 mph3.2 kmh 30.52 in1033.5 mb 0.00 in0.0 mm 0.00 in0.0 mm 0.00 in0.0 mm
03:00 AM 28.0°F-2.2°C 23.8°F-4.6°C 84% Calm Calm 2.0 mph3.2 kmh 30.52 in1033.5 mb 0.00 in0.0 mm 0.00 in0.0 mm 0.00 in0.0 mm
02:45 AM 28.2°F-2.1°C 24.0°F-4.4°C 84% Calm Calm 2.0 mph3.2 kmh 30.53 in1033.9 mb 0.00 in0.0 mm 0.00 in0.0 mm 0.00 in0.0 mm
02:30 AM 28.2°F-2.1°C 24.0°F-4.4°C 84% Calm Calm 2.0 mph3.2 kmh 30.53 in1033.9 mb 0.00 in0.0 mm 0.00 in0.0 mm 0.00 in0.0 mm
02:15 AM 28.2°F-2.1°C 24.0°F-4.4°C 84% Calm Calm 2.0 mph3.2 kmh 30.53 in1033.9 mb 0.00 in0.0 mm 0.00 in0.0 mm 0.00 in0.0 mm
02:00 AM 28.4°F-2.0°C 24.2°F-4.3°C 84% Calm Calm 2.0 mph3.2 kmh 30.53 in1033.9 mb 0.00 in0.0 mm 0.00 in0.0 mm 0.00 in0.0 mm
01:45 AM 28.4°F-2.0°C 23.9°F-4.5°C 83% Calm Calm 2.0 mph3.2 kmh 30.53 in1033.9 mb 0.00 in0.0 mm 0.00 in0.0 mm 0.00 in0.0 mm
01:30 AM 28.2°F-2.1°C 23.7°F-4.6°C 83% Calm Calm 2.0 mph3.2 kmh 30.52 in1033.5 mb 0.00 in0.0 mm 0.00 in0.0 mm 0.00 in0.0 mm
01:15 AM 28.2°F-2.1°C 23.7°F-4.6°C 83% Calm Calm 2.0 mph3.2 kmh 30.52 in1033.5 mb 0.00 in0.0 mm 0.00 in0.0 mm 0.00 in0.0 mm
01:00 AM 28.4°F-2.0°C 23.9°F-4.5°C 83% Calm Calm 2.0 mph3.2 kmh 30.52 in1033.5 mb 0.00 in0.0 mm 0.00 in0.0 mm 0.00 in0.0 mm
12:45 AM 28.4°F-2.0°C 23.9°F-4.5°C 83% Calm Calm 2.0 mph3.2 kmh 30.52 in1033.5 mb 0.00 in0.0 mm 0.00 in0.0 mm 0.00 in0.0 mm
12:30 AM 28.6°F-1.9°C 24.1°F-4.4°C 83% Calm Calm 2.0 mph3.2 kmh 30.52 in1033.5 mb 0.00 in0.0 mm 0.00 in0.0 mm 0.00 in0.0 mm
12:15 AM 28.6°F-1.9°C 24.1°F-4.4°C 83% Calm Calm 2.0 mph3.2 kmh 30.52 in1033.5 mb 0.00 in0.0 mm 0.00 in0.0 mm 0.00 in0.0 mm
12:00 AM 28.6°F-1.9°C 24.1°F-4.4°C 83% 1.0 mph NW1.6 kmh NW 5.0 mph8.0 kmh 30.52 in1033.5 mb 0.00 in0.0 mm 0.00 in0.0 mm 0.00 in0.0 mm